sensor_id;sensor_type;location;lat;lon;timestamp;pressure;altitude;pressure_sealevel;temperature;humidity
58367;BME280;57745;42.524;12.052;2023-06-22T00:01:16;96899.13;;;27.84;35.54
58367;BME280;57745;42.524;12.052;2023-06-22T00:03:42;96890.53;;;27.82;35.19
58367;BME280;57745;42.524;12.052;2023-06-22T00:06:07;96893.81;;;27.99;35.69
58367;BME280;57745;42.524;12.052;2023-06-22T00:08:32;96907.75;;;27.99;36.30
58367;BME280;57745;42.524;12.052;2023-06-22T00:10:58;96900.25;;;28.07;36.11
58367;BME280;57745;42.524;12.052;2023-06-22T00:13:23;96898.41;;;27.97;36.82
58367;BME280;57745;42.524;12.052;2023-06-22T00:15:49;96898.84;;;28.01;37.01
58367;BME280;57745;42.524;12.052;2023-06-22T00:18:14;96903.41;;;27.85;37.04
58367;BME280;57745;42.524;12.052;2023-06-22T00:20:41;96897.09;;;27.84;36.89
58367;BME280;57745;42.524;12.052;2023-06-22T00:23:07;96896.50;;;27.73;36.38
58367;BME280;57745;42.524;12.052;2023-06-22T00:25:37;96887.28;;;27.65;36.34
58367;BME280;57745;42.524;12.052;2023-06-22T00:28:05;96888.56;;;27.64;36.28
58367;BME280;57745;42.524;12.052;2023-06-22T00:30:32;96888.91;;;27.73;36.30
58367;BME280;57745;42.524;12.052;2023-06-22T00:32:58;96888.84;;;27.79;36.40
58367;BME280;57745;42.524;12.052;2023-06-22T00:35:24;96885.69;;;27.50;36.83
58367;BME280;57745;42.524;12.052;2023-06-22T00:37:58;96893.50;;;27.52;36.86
58367;BME280;57745;42.524;12.052;2023-06-22T00:40:29;96895.41;;;27.63;36.43
58367;BME280;57745;42.524;12.052;2023-06-22T00:42:55;96901.22;;;27.65;36.64
58367;BME280;57745;42.524;12.052;2023-06-22T00:45:21;96914.09;;;27.68;36.48
58367;BME280;57745;42.524;12.052;2023-06-22T00:47:52;96903.47;;;27.66;36.78
58367;BME280;57745;42.524;12.052;2023-06-22T00:50:20;96898.66;;;27.67;37.16
58367;BME280;57745;42.524;12.052;2023-06-22T00:52:54;96892.31;;;27.66;37.16
58367;BME280;57745;42.524;12.052;2023-06-22T00:55:23;96891.69;;;27.73;36.87
58367;BME280;57745;42.524;12.052;2023-06-22T00:57:49;96889.66;;;27.74;36.64
58367;BME280;57745;42.524;12.052;2023-06-22T01:00:15;96885.47;;;27.67;36.94
58367;BME280;57745;42.524;12.052;2023-06-22T01:02:46;96890.28;;;27.48;36.82
58367;BME280;57745;42.524;12.052;2023-06-22T01:05:14;96884.31;;;27.76;36.48
58367;BME280;57745;42.524;12.052;2023-06-22T01:10:21;96875.28;;;27.70;36.74
58367;BME280;57745;42.524;12.052;2023-06-22T01:16:04;96880.28;;;27.39;37.00
58367;BME280;57745;42.524;12.052;2023-06-22T01:18:35;96878.59;;;27.49;36.76
58367;BME280;57745;42.524;12.052;2023-06-22T01:21:04;96874.63;;;27.26;36.60
58367;BME280;57745;42.524;12.052;2023-06-22T01:26:17;96874.41;;;27.24;36.23
58367;BME280;57745;42.524;12.052;2023-06-22T01:28:48;96879.97;;;27.43;36.32
58367;BME280;57745;42.524;12.052;2023-06-22T01:31:16;96878.59;;;27.49;36.36
58367;BME280;57745;42.524;12.052;2023-06-22T01:33:45;96885.25;;;27.28;36.40
58367;BME280;57745;42.524;12.052;2023-06-22T01:36:12;96878.69;;;27.44;36.50
58367;BME280;57745;42.524;12.052;2023-06-22T01:38:39;96877.94;;;27.43;36.46
58367;BME280;57745;42.524;12.052;2023-06-22T01:41:04;96881.03;;;27.40;36.33
58367;BME280;57745;42.524;12.052;2023-06-22T01:43:31;96878.91;;;27.46;36.29
58367;BME280;57745;42.524;12.052;2023-06-22T01:45:59;96872.59;;;27.27;36.42
58367;BME280;57745;42.524;12.052;2023-06-22T01:48:25;96878.13;;;27.32;36.31
58367;BME280;57745;42.524;12.052;2023-06-22T01:50:52;96870.72;;;27.35;35.93
58367;BME280;57745;42.524;12.052;2023-06-22T01:53:23;96867.03;;;27.27;36.07
58367;BME280;57745;42.524;12.052;2023-06-22T01:55:49;96865.81;;;27.22;36.03
58367;BME280;57745;42.524;12.052;2023-06-22T01:58:14;96860.09;;;27.33;36.00
58367;BME280;57745;42.524;12.052;2023-06-22T02:00:46;96856.94;;;27.24;36.11
58367;BME280;57745;42.524;12.052;2023-06-22T02:03:19;96850.31;;;27.08;36.38
58367;BME280;57745;42.524;12.052;2023-06-22T02:05:50;96847.19;;;27.17;36.35
58367;BME280;57745;42.524;12.052;2023-06-22T02:08:22;96841.75;;;27.25;36.62
58367;BME280;57745;42.524;12.052;2023-06-22T02:10:51;96851.75;;;27.33;35.67
58367;BME280;57745;42.524;12.052;2023-06-22T02:13:17;96845.97;;;27.31;35.53
58367;BME280;57745;42.524;12.052;2023-06-22T02:15:43;96844.75;;;27.08;36.08
58367;BME280;57745;42.524;12.052;2023-06-22T02:18:09;96849.00;;;27.14;36.18
58367;BME280;57745;42.524;12.052;2023-06-22T02:20:38;96851.69;;;27.20;36.45
58367;BME280;57745;42.524;12.052;2023-06-22T02:23:05;96846.41;;;27.35;36.86
58367;BME280;57745;42.524;12.052;2023-06-22T02:25:31;96839.78;;;27.38;36.84
58367;BME280;57745;42.524;12.052;2023-06-22T02:27:57;96840.66;;;27.46;36.14
58367;BME280;57745;42.524;12.052;2023-06-22T02:30:22;96840.06;;;27.35;36.41
58367;BME280;57745;42.524;12.052;2023-06-22T02:32:48;96843.03;;;27.42;36.24
58367;BME280;57745;42.524;12.052;2023-06-22T02:35:13;96844.88;;;27.53;36.02
58367;BME280;57745;42.524;12.052;2023-06-22T02:37:39;96842.72;;;27.27;36.56
58367;BME280;57745;42.524;12.052;2023-06-22T02:40:07;96848.94;;;27.52;36.06
58367;BME280;57745;42.524;12.052;2023-06-22T02:42:34;96850.84;;;27.44;36.07
58367;BME280;57745;42.524;12.052;2023-06-22T02:45:00;96844.94;;;27.47;36.16
58367;BME280;57745;42.524;12.052;2023-06-22T02:47:26;96844.59;;;27.57;36.60
58367;BME280;57745;42.524;12.052;2023-06-22T02:49:51;96841.97;;;27.27;36.30
58367;BME280;57745;42.524;12.052;2023-06-22T02:52:16;96841.44;;;27.28;36.80
58367;BME280;57745;42.524;12.052;2023-06-22T02:54:42;96850.69;;;27.36;36.72
58367;BME280;57745;42.524;12.052;2023-06-22T02:57:10;96843.25;;;27.26;37.42
58367;BME280;57745;42.524;12.052;2023-06-22T02:59:41;96845.00;;;27.29;37.16
58367;BME280;57745;42.524;12.052;2023-06-22T03:02:09;96845.22;;;27.31;37.39
58367;BME280;57745;42.524;12.052;2023-06-22T03:04:35;96854.41;;;27.26;37.58
58367;BME280;57745;42.524;12.052;2023-06-22T03:07:01;96848.63;;;27.05;38.26
58367;BME280;57745;42.524;12.052;2023-06-22T03:09:28;96850.91;;;27.38;37.43
58367;BME280;57745;42.524;12.052;2023-06-22T03:11:56;96841.06;;;27.37;37.24
58367;BME280;57745;42.524;12.052;2023-06-22T03:14:21;96843.19;;;27.31;36.97
58367;BME280;57745;42.524;12.052;2023-06-22T03:16:47;96842.34;;;27.36;37.52
58367;BME280;57745;42.524;12.052;2023-06-22T03:19:13;96846.09;;;27.20;37.48
58367;BME280;57745;42.524;12.052;2023-06-22T03:21:39;96857.09;;;27.31;37.17
58367;BME280;57745;42.524;12.052;2023-06-22T03:24:05;96850.34;;;27.27;37.26
58367;BME280;57745;42.524;12.052;2023-06-22T03:26:31;96855.50;;;27.36;37.45
58367;BME280;57745;42.524;12.052;2023-06-22T03:28:56;96850.47;;;27.34;36.89
58367;BME280;57745;42.524;12.052;2023-06-22T03:31:22;96854.69;;;27.22;36.82
58367;BME280;57745;42.524;12.052;2023-06-22T03:33:51;96853.63;;;27.25;36.97
58367;BME280;57745;42.524;12.052;2023-06-22T03:36:18;96856.19;;;27.23;36.63
58367;BME280;57745;42.524;12.052;2023-06-22T03:38:48;96858.47;;;27.06;36.00
58367;BME280;57745;42.524;12.052;2023-06-22T03:41:14;96854.97;;;27.37;36.75
58367;BME280;57745;42.524;12.052;2023-06-22T03:43:39;96848.16;;;27.20;36.06
58367;BME280;57745;42.524;12.052;2023-06-22T03:46:05;96848.59;;;27.24;36.10
58367;BME280;57745;42.524;12.052;2023-06-22T03:48:31;96851.63;;;27.07;35.80
58367;BME280;57745;42.524;12.052;2023-06-22T03:50:56;96851.69;;;27.20;36.04
58367;BME280;57745;42.524;12.052;2023-06-22T03:53:21;96847.19;;;27.17;35.54
58367;BME280;57745;42.524;12.052;2023-06-22T03:55:51;96850.63;;;27.23;35.58
58367;BME280;57745;42.524;12.052;2023-06-22T03:58:18;96849.91;;;27.04;35.65
58367;BME280;57745;42.524;12.052;2023-06-22T04:00:53;96850.78;;;27.31;35.47
58367;BME280;57745;42.524;12.052;2023-06-22T04:03:18;96851.78;;;27.14;35.72
58367;BME280;57745;42.524;12.052;2023-06-22T04:05:44;96854.41;;;27.26;35.49
58367;BME280;57745;42.524;12.052;2023-06-22T04:08:11;96852.13;;;27.24;35.29
58367;BME280;57745;42.524;12.052;2023-06-22T04:10:37;96848.38;;;27.22;35.66
58367;BME280;57745;42.524;12.052;2023-06-22T04:13:03;96846.88;;;27.21;34.93
58367;BME280;57745;42.524;12.052;2023-06-22T04:15:28;96844.31;;;27.04;35.90
58367;BME280;57745;42.524;12.052;2023-06-22T04:17:54;96850.47;;;27.34;34.82
58367;BME280;57745;42.524;12.052;2023-06-22T04:20:20;96841.00;;;27.24;35.35
58367;BME280;57745;42.524;12.052;2023-06-22T04:22:46;96836.16;;;27.43;35.50
58367;BME280;57745;42.524;12.052;2023-06-22T04:25:11;96841.81;;;27.38;35.14
58367;BME280;57745;42.524;12.052;2023-06-22T04:27:36;96843.84;;;27.37;35.15
58367;BME280;57745;42.524;12.052;2023-06-22T04:30:06;96840.00;;;27.40;35.47
58367;BME280;57745;42.524;12.052;2023-06-22T04:32:32;96839.81;;;27.20;34.94
58367;BME280;57745;42.524;12.052;2023-06-22T04:34:58;96837.38;;;27.29;34.67
58367;BME280;57745;42.524;12.052;2023-06-22T04:37:25;96840.25;;;27.24;34.05
58367;BME280;57745;42.524;12.052;2023-06-22T04:39:51;96848.31;;;27.27;34.68
58367;BME280;57745;42.524;12.052;2023-06-22T04:42:16;96847.16;;;27.36;34.64
58367;BME280;57745;42.524;12.052;2023-06-22T04:44:42;96842.78;;;27.22;34.59
58367;BME280;57745;42.524;12.052;2023-06-22T04:47:07;96846.94;;;27.34;34.87
58367;BME280;57745;42.524;12.052;2023-06-22T04:49:36;96842.38;;;27.17;34.60
58367;BME280;57745;42.524;12.052;2023-06-22T04:52:07;96848.44;;;27.35;33.87
58367;BME280;57745;42.524;12.052;2023-06-22T04:54:34;96856.19;;;27.23;34.50
58367;BME280;57745;42.524;12.052;2023-06-22T04:57:07;96856.34;;;27.31;34.47
58367;BME280;57745;42.524;12.052;2023-06-22T04:59:36;96855.38;;;27.28;34.50
58367;BME280;57745;42.524;12.052;2023-06-22T05:02:05;96851.53;;;27.31;34.81
58367;BME280;57745;42.524;12.052;2023-06-22T05:04:31;96851.91;;;27.22;35.39
58367;BME280;57745;42.524;12.052;2023-06-22T05:06:57;96852.28;;;27.13;35.37
58367;BME280;57745;42.524;12.052;2023-06-22T05:09:23;96848.06;;;27.25;35.31
58367;BME280;57745;42.524;12.052;2023-06-22T05:11:50;96857.53;;;27.35;35.17
58367;BME280;57745;42.524;12.052;2023-06-22T05:14:15;96856.94;;;27.24;35.44
58367;BME280;57745;42.524;12.052;2023-06-22T05:16:41;96862.88;;;27.33;35.23
58367;BME280;57745;42.524;12.052;2023-06-22T05:19:07;96868.16;;;27.37;35.18
58367;BME280;57745;42.524;12.052;2023-06-22T05:21:32;96859.72;;;27.42;34.70
58367;BME280;57745;42.524;12.052;2023-06-22T05:23:58;96860.38;;;27.48;35.35
58367;BME280;57745;42.524;12.052;2023-06-22T05:26:33;96869.66;;;27.38;35.07
58367;BME280;57745;42.524;12.052;2023-06-22T05:29:00;96871.97;;;27.52;35.70
58367;BME280;57745;42.524;12.052;2023-06-22T05:31:26;96864.63;;;27.36;35.82
58367;BME280;57745;42.524;12.052;2023-06-22T05:33:53;96865.97;;;27.48;35.66
58367;BME280;57745;42.524;12.052;2023-06-22T05:36:19;96870.47;;;27.51;35.88
58367;BME280;57745;42.524;12.052;2023-06-22T05:38:53;96865.38;;;27.56;35.87
58367;BME280;57745;42.524;12.052;2023-06-22T05:41:19;96864.78;;;27.44;37.52
58367;BME280;57745;42.524;12.052;2023-06-22T05:43:44;96869.06;;;27.64;36.80
58367;BME280;57745;42.524;12.052;2023-06-22T05:46:10;96873.50;;;27.53;37.15
58367;BME280;57745;42.524;12.052;2023-06-22T05:48:35;96872.28;;;27.68;37.26
58367;BME280;57745;42.524;12.052;2023-06-22T05:51:01;96868.16;;;27.56;36.89
58367;BME280;57745;42.524;12.052;2023-06-22T05:53:26;96876.53;;;27.56;36.91
58367;BME280;57745;42.524;12.052;2023-06-22T05:55:52;96871.75;;;27.69;36.05
58367;BME280;57745;42.524;12.052;2023-06-22T05:58:18;96875.72;;;27.74;36.06
58367;BME280;57745;42.524;12.052;2023-06-22T06:00:43;96876.44;;;27.61;35.04
58367;BME280;57745;42.524;12.052;2023-06-22T06:03:10;96869.88;;;27.59;35.83
58367;BME280;57745;42.524;12.052;2023-06-22T06:05:36;96874.84;;;27.66;36.00
58367;BME280;57745;42.524;12.052;2023-06-22T06:08:04;96869.28;;;27.66;35.80
58367;BME280;57745;42.524;12.052;2023-06-22T06:10:33;96878.91;;;27.65;35.96
58367;BME280;57745;42.524;12.052;2023-06-22T06:12:59;96875.81;;;27.49;36.26
58367;BME280;57745;42.524;12.052;2023-06-22T06:15:27;96876.66;;;27.63;36.33
58367;BME280;57745;42.524;12.052;2023-06-22T06:17:53;96884.03;;;27.61;36.35
58367;BME280;57745;42.524;12.052;2023-06-22T06:20:23;96879.50;;;27.58;37.19
58367;BME280;57745;42.524;12.052;2023-06-22T06:22:49;96887.06;;;27.63;37.62
58367;BME280;57745;42.524;12.052;2023-06-22T06:25:15;96894.59;;;27.68;37.39
58367;BME280;57745;42.524;12.052;2023-06-22T06:27:49;96891.72;;;27.54;38.12
58367;BME280;57745;42.524;12.052;2023-06-22T06:30:16;96889.44;;;27.72;37.96
58367;BME280;57745;42.524;12.052;2023-06-22T06:32:43;96893.13;;;27.80;37.86
58367;BME280;57745;42.524;12.052;2023-06-22T06:35:11;96889.53;;;27.66;38.18
58367;BME280;57745;42.524;12.052;2023-06-22T06:37:39;96895.38;;;27.81;37.73
58367;BME280;57745;42.524;12.052;2023-06-22T06:40:06;96893.94;;;27.75;37.73
58367;BME280;57745;42.524;12.052;2023-06-22T06:42:35;96897.09;;;27.84;37.97
58367;BME280;57745;42.524;12.052;2023-06-22T06:45:04;96901.47;;;27.80;38.20
58367;BME280;57745;42.524;12.052;2023-06-22T06:47:29;96899.22;;;27.78;38.56
58367;BME280;57745;42.524;12.052;2023-06-22T06:49:55;96898.47;;;27.78;38.46
58367;BME280;57745;42.524;12.052;2023-06-22T06:52:20;96901.78;;;27.76;38.70
58367;BME280;57745;42.524;12.052;2023-06-22T06:54:46;96905.16;;;27.88;38.67
58367;BME280;57745;42.524;12.052;2023-06-22T06:57:11;96904.91;;;27.86;38.64
58367;BME280;57745;42.524;12.052;2023-06-22T06:59:38;96914.75;;;27.74;39.12
58367;BME280;57745;42.524;12.052;2023-06-22T07:02:04;96914.97;;;27.76;38.88
58367;BME280;57745;42.524;12.052;2023-06-22T07:04:30;96914.00;;;27.54;39.25
58367;BME280;57745;42.524;12.052;2023-06-22T07:06:55;96918.38;;;27.69;38.75
58367;BME280;57745;42.524;12.052;2023-06-22T07:09:21;96915.94;;;27.78;39.06
58367;BME280;57745;42.524;12.052;2023-06-22T07:11:46;96915.50;;;27.74;38.67
58367;BME280;57745;42.524;12.052;2023-06-22T07:14:12;96916.19;;;27.80;38.33
58367;BME280;57745;42.524;12.052;2023-06-22T07:16:37;96915.63;;;27.82;38.23
58367;BME280;57745;42.524;12.052;2023-06-22T07:19:02;96920.94;;;27.67;38.51
58367;BME280;57745;42.524;12.052;2023-06-22T07:21:28;96918.97;;;27.62;38.17
58367;BME280;57745;42.524;12.052;2023-06-22T07:23:53;96912.72;;;27.74;37.67
58367;BME280;57745;42.524;12.052;2023-06-22T07:26:20;96919.72;;;27.62;37.16
58367;BME280;57745;42.524;12.052;2023-06-22T07:28:45;96914.28;;;27.70;37.27
58367;BME280;57745;42.524;12.052;2023-06-22T07:31:11;96918.91;;;27.67;37.14
58367;BME280;57745;42.524;12.052;2023-06-22T07:33:36;96914.28;;;27.70;36.76
58367;BME280;57745;42.524;12.052;2023-06-22T07:36:02;96906.78;;;27.65;37.20
58367;BME280;57745;42.524;12.052;2023-06-22T07:38:32;96909.34;;;27.63;37.53
58367;BME280;57745;42.524;12.052;2023-06-22T07:40:58;96905.41;;;27.71;38.25
58367;BME280;57745;42.524;12.052;2023-06-22T07:43:23;96903.59;;;27.74;38.24
58367;BME280;57745;42.524;12.052;2023-06-22T07:45:49;96909.91;;;27.74;38.61
58367;BME280;57745;42.524;12.052;2023-06-22T07:48:21;96908.00;;;27.69;38.74
58367;BME280;57745;42.524;12.052;2023-06-22T07:50:47;96901.81;;;27.58;39.06
58367;BME280;57745;42.524;12.052;2023-06-22T07:53:13;96903.13;;;27.70;38.50
58367;BME280;57745;42.524;12.052;2023-06-22T07:55:38;96904.00;;;27.65;38.33
58367;BME280;57745;42.524;12.052;2023-06-22T07:58:04;96894.59;;;27.68;38.09
58367;BME280;57745;42.524;12.052;2023-06-22T08:00:29;96902.09;;;27.73;37.53
58367;BME280;57745;42.524;12.052;2023-06-22T08:02:54;96900.16;;;27.68;38.10
58367;BME280;57745;42.524;12.052;2023-06-22T08:05:20;96898.66;;;27.67;37.09
58367;BME280;57745;42.524;12.052;2023-06-22T08:07:46;96896.28;;;27.71;37.31
58367;BME280;57745;42.524;12.052;2023-06-22T08:10:12;96896.44;;;27.78;37.14
58367;BME280;57745;42.524;12.052;2023-06-22T08:12:38;96897.38;;;27.68;37.05
58367;BME280;57745;42.524;12.052;2023-06-22T08:15:04;96895.22;;;27.74;36.93
58367;BME280;57745;42.524;12.052;2023-06-22T08:17:30;96900.81;;;27.74;37.30
58367;BME280;57745;42.524;12.052;2023-06-22T08:19:56;96891.38;;;27.77;36.35
58367;BME280;57745;42.524;12.052;2023-06-22T08:22:22;96895.47;;;27.76;36.69
58367;BME280;57745;42.524;12.052;2023-06-22T08:24:47;96901.38;;;27.85;36.90
58367;BME280;57745;42.524;12.052;2023-06-22T08:27:13;96897.19;;;27.79;37.56
58367;BME280;57745;42.524;12.052;2023-06-22T08:29:40;96907.41;;;27.89;37.22
58367;BME280;57745;42.524;12.052;2023-06-22T08:32:11;96900.84;;;27.87;37.53
58367;BME280;57745;42.524;12.052;2023-06-22T08:34:37;96903.41;;;27.85;37.62
58367;BME280;57745;42.524;12.052;2023-06-22T08:37:08;96909.22;;;27.87;37.59
58367;BME280;57745;42.524;12.052;2023-06-22T08:39:33;96903.41;;;27.85;37.09
58367;BME280;57745;42.524;12.052;2023-06-22T08:41:59;96898.00;;;27.93;36.43
58367;BME280;57745;42.524;12.052;2023-06-22T08:44:25;96898.06;;;27.87;36.37
58367;BME280;57745;42.524;12.052;2023-06-22T08:46:50;96890.03;;;27.97;36.55
58367;BME280;57745;42.524;12.052;2023-06-22T08:49:16;96893.69;;;27.92;37.03
58367;BME280;57745;42.524;12.052;2023-06-22T08:51:41;96883.53;;;27.94;36.98
58367;BME280;57745;42.524;12.052;2023-06-22T08:54:07;96881.38;;;28.00;37.68
58367;BME280;57745;42.524;12.052;2023-06-22T08:56:32;96886.84;;;27.93;38.37
58367;BME280;57745;42.524;12.052;2023-06-22T08:58:57;96885.97;;;27.98;38.06
58367;BME280;57745;42.524;12.052;2023-06-22T09:01:23;96888.91;;;28.05;38.52
58367;BME280;57745;42.524;12.052;2023-06-22T09:03:49;96888.91;;;28.05;38.47
58367;BME280;57745;42.524;12.052;2023-06-22T09:06:20;96887.63;;;28.06;38.47
58367;BME280;57745;42.524;12.052;2023-06-22T09:08:47;96885.69;;;28.14;38.46
58367;BME280;57745;42.524;12.052;2023-06-22T09:11:12;96883.13;;;28.16;37.97
58367;BME280;57745;42.524;12.052;2023-06-22T09:13:38;96885.63;;;28.20;38.04
58367;BME280;57745;42.524;12.052;2023-06-22T09:16:04;96888.03;;;28.10;38.14
58367;BME280;57745;42.524;12.052;2023-06-22T09:18:29;96897.75;;;28.22;38.10
58367;BME280;57745;42.524;12.052;2023-06-22T09:20:55;96901.69;;;28.14;38.43
58367;BME280;57745;42.524;12.052;2023-06-22T09:23:21;96893.78;;;28.18;38.04
58367;BME280;57745;42.524;12.052;2023-06-22T09:25:46;96889.81;;;28.27;38.00
58367;BME280;57745;42.524;12.052;2023-06-22T09:28:13;96888.84;;;28.24;37.79
58367;BME280;57745;42.524;12.052;2023-06-22T09:30:39;96889.50;;;28.30;37.95
58367;BME280;57745;42.524;12.052;2023-06-22T09:33:04;96891.34;;;28.28;37.92
58367;BME280;57745;42.524;12.052;2023-06-22T09:35:30;96884.88;;;28.19;38.04
58367;BME280;57745;42.524;12.052;2023-06-22T09:37:55;96888.84;;;28.24;37.85
58367;BME280;57745;42.524;12.052;2023-06-22T09:40:21;96885.09;;;28.21;37.48
58367;BME280;57745;42.524;12.052;2023-06-22T09:46:04;96879.88;;;28.31;37.39
58367;BME280;57745;42.524;12.052;2023-06-22T09:48:29;96882.75;;;28.39;36.79
58367;BME280;57745;42.524;12.052;2023-06-22T09:50:56;96868.59;;;28.37;36.50
58367;BME280;57745;42.524;12.052;2023-06-22T09:53:22;96880.81;;;28.34;36.26
58367;BME280;57745;42.524;12.052;2023-06-22T09:55:47;96879.75;;;28.37;36.20
58367;BME280;57745;42.524;12.052;2023-06-22T09:58:12;96877.94;;;28.39;36.13
58367;BME280;57745;42.524;12.052;2023-06-22T10:00:41;96873.22;;;28.47;36.48
58367;BME280;57745;42.524;12.052;2023-06-22T10:03:07;96873.97;;;28.48;36.01
58367;BME280;57745;42.524;12.052;2023-06-22T10:05:32;96876.97;;;28.50;36.32
58367;BME280;57745;42.524;12.052;2023-06-22T10:07:58;96878.47;;;28.51;35.77
58367;BME280;57745;42.524;12.052;2023-06-22T10:10:23;96874.72;;;28.48;35.97
58367;BME280;57745;42.524;12.052;2023-06-22T10:12:55;96879.22;;;28.51;36.55
58367;BME280;57745;42.524;12.052;2023-06-22T10:15:21;96881.13;;;28.56;36.41
58367;BME280;57745;42.524;12.052;2023-06-22T10:17:47;96874.19;;;28.50;36.64
58367;BME280;57745;42.524;12.052;2023-06-22T10:20:13;96877.06;;;28.57;36.97
58367;BME280;57745;42.524;12.052;2023-06-22T10:22:42;96882.22;;;28.53;37.64
58367;BME280;57745;42.524;12.052;2023-06-22T10:25:09;96876.13;;;28.55;38.01
58367;BME280;57745;42.524;12.052;2023-06-22T10:27:35;96882.44;;;28.55;38.32
58367;BME280;57745;42.524;12.052;2023-06-22T10:30:00;96876.97;;;28.76;39.07
58367;BME280;57745;42.524;12.052;2023-06-22T10:32:26;96882.09;;;28.72;39.33
58367;BME280;57745;42.524;12.052;2023-06-22T10:34:53;96878.69;;;28.66;39.23
58367;BME280;57745;42.524;12.052;2023-06-22T10:37:19;96872.00;;;28.69;38.69
58367;BME280;57745;42.524;12.052;2023-06-22T10:39:44;96874.81;;;28.82;38.64
58367;BME280;57745;42.524;12.052;2023-06-22T10:42:10;96880.09;;;28.86;37.52
58367;BME280;57745;42.524;12.052;2023-06-22T10:44:36;96872.25;;;28.84;37.17
58367;BME280;57745;42.524;12.052;2023-06-22T10:47:01;96879.66;;;28.82;36.21
58367;BME280;57745;42.524;12.052;2023-06-22T10:49:27;96881.91;;;28.83;35.75
58367;BME280;57745;42.524;12.052;2023-06-22T10:51:52;96870.53;;;28.81;36.21
58367;BME280;57745;42.524;12.052;2023-06-22T10:54:17;96872.69;;;28.88;36.89
58367;BME280;57745;42.524;12.052;2023-06-22T10:56:44;96880.94;;;28.94;37.58
58367;BME280;57745;42.524;12.052;2023-06-22T10:59:09;96876.75;;;28.87;37.28
58367;BME280;57745;42.524;12.052;2023-06-22T11:01:35;96876.31;;;28.83;37.12
58367;BME280;57745;42.524;12.052;2023-06-22T11:04:02;96883.19;;;28.95;37.33
58367;BME280;57745;42.524;12.052;2023-06-22T11:06:27;96874.59;;;28.93;37.36
58367;BME280;57745;42.524;12.052;2023-06-22T11:08:53;96881.81;;;28.89;37.22
58367;BME280;57745;42.524;12.052;2023-06-22T11:11:18;96877.94;;;28.92;37.12
58367;BME280;57745;42.524;12.052;2023-06-22T11:13:44;96885.03;;;28.93;37.69
58367;BME280;57745;42.524;12.052;2023-06-22T11:16:10;96884.69;;;28.97;37.63
58367;BME280;57745;42.524;12.052;2023-06-22T11:18:35;96874.72;;;29.01;37.73
58367;BME280;57745;42.524;12.052;2023-06-22T11:21:01;96875.47;;;29.02;37.62
58367;BME280;57745;42.524;12.052;2023-06-22T11:23:26;96872.13;;;29.03;36.93
58367;BME280;57745;42.524;12.052;2023-06-22T11:25:53;96867.69;;;29.08;36.51
58367;BME280;57745;42.524;12.052;2023-06-22T11:28:19;96871.38;;;29.03;37.00
58367;BME280;57745;42.524;12.052;2023-06-22T11:30:44;96869.44;;;28.98;36.91
58367;BME280;57745;42.524;12.052;2023-06-22T11:33:09;96864.69;;;29.06;37.21
58367;BME280;57745;42.524;12.052;2023-06-22T11:35:35;96861.03;;;29.11;37.09
58367;BME280;57745;42.524;12.052;2023-06-22T11:38:00;96867.47;;;29.06;36.23
58367;BME280;57745;42.524;12.052;2023-06-22T11:40:26;96864.91;;;29.08;35.13
58367;BME280;57745;42.524;12.052;2023-06-22T11:42:51;96870.50;;;29.08;34.86
58367;BME280;57745;42.524;12.052;2023-06-22T11:45:17;96862.31;;;29.10;35.14
58367;BME280;57745;42.524;12.052;2023-06-22T11:47:44;96869.19;;;29.09;34.91
58367;BME280;57745;42.524;12.052;2023-06-22T11:50:09;96869.09;;;29.14;34.37
58367;BME280;57745;42.524;12.052;2023-06-22T11:52:35;96862.28;;;29.23;34.18
58367;BME280;57745;42.524;12.052;2023-06-22T11:55:04;96860.38;;;29.18;34.36
58367;BME280;57745;42.524;12.052;2023-06-22T11:57:33;96854.13;;;29.25;34.33
58367;BME280;57745;42.524;12.052;2023-06-22T11:59:59;96849.84;;;29.24;34.87
58367;BME280;57745;42.524;12.052;2023-06-22T12:02:24;96855.84;;;29.28;34.47
58367;BME280;57745;42.524;12.052;2023-06-22T12:04:50;96862.28;;;29.23;34.33
58367;BME280;57745;42.524;12.052;2023-06-22T12:07:18;96860.47;;;29.25;35.12
58367;BME280;57745;42.524;12.052;2023-06-22T12:09:43;96850.03;;;29.26;34.90
58367;BME280;57745;42.524;12.052;2023-06-22T12:12:09;96859.28;;;29.21;34.93
58367;BME280;57745;42.524;12.052;2023-06-22T12:14:35;96851.75;;;29.29;34.27
58367;BME280;57745;42.524;12.052;2023-06-22T12:17:01;96855.09;;;29.27;33.86
58367;BME280;57745;42.524;12.052;2023-06-22T12:19:26;96851.94;;;29.31;33.23
58367;BME280;57745;42.524;12.052;2023-06-22T12:21:52;96847.25;;;29.26;33.78
58367;BME280;57745;42.524;12.052;2023-06-22T12:24:17;96848.00;;;29.26;33.09
58367;BME280;57745;42.524;12.052;2023-06-22T12:26:42;96848.97;;;29.29;32.55
58367;BME280;57745;42.524;12.052;2023-06-22T12:29:08;96840.97;;;29.33;32.83
58367;BME280;57745;42.524;12.052;2023-06-22T12:31:35;96838.88;;;29.26;32.99
58367;BME280;57745;42.524;12.052;2023-06-22T12:34:02;96833.28;;;29.26;33.72
58367;BME280;57745;42.524;12.052;2023-06-22T12:36:27;96839.91;;;29.36;33.60
58367;BME280;57745;42.524;12.052;2023-06-22T12:38:53;96835.41;;;29.33;33.92
58367;BME280;57745;42.524;12.052;2023-06-22T12:41:19;96836.06;;;29.39;33.64
58367;BME280;57745;42.524;12.052;2023-06-22T12:43:44;96836.69;;;29.32;33.62
58367;BME280;57745;42.524;12.052;2023-06-22T12:46:10;96830.16;;;29.29;32.47
58367;BME280;57745;42.524;12.052;2023-06-22T12:48:35;96832.06;;;29.35;32.61
58367;BME280;57745;42.524;12.052;2023-06-22T12:51:07;96829.19;;;29.27;32.96
58367;BME280;57745;42.524;12.052;2023-06-22T12:53:32;96822.72;;;29.32;32.64
58367;BME280;57745;42.524;12.052;2023-06-22T12:55:57;96828.53;;;29.34;32.66
58367;BME280;57745;42.524;12.052;2023-06-22T12:58:23;96822.53;;;29.30;32.19